sensor_id;sensor_type;location;lat;lon;timestamp;pressure;altitude;pressure_sealevel;temperature;humidity
63439;BME280;49567;48.958;8.294;2022-12-10T00:01:47;99254.97;;;4.09;74.93
63439;BME280;49567;48.958;8.294;2022-12-10T00:04:13;99255.22;;;4.07;75.19
63439;BME280;49567;48.958;8.294;2022-12-10T00:06:40;99253.38;;;4.08;74.89
63439;BME280;49567;48.958;8.294;2022-12-10T00:09:08;99259.53;;;4.08;74.91
63439;BME280;49567;48.958;8.294;2022-12-10T00:11:36;99256.25;;;4.06;75.18
63439;BME280;49567;48.958;8.294;2022-12-10T00:14:02;99257.91;;;4.07;74.76
63439;BME280;49567;48.958;8.294;2022-12-10T00:16:28;99256.50;;;4.05;74.97
63439;BME280;49567;48.958;8.294;2022-12-10T00:18:54;99258.38;;;4.04;75.02
63439;BME280;49567;48.958;8.294;2022-12-10T00:21:23;99261.28;;;4.03;75.13
63439;BME280;49567;48.958;8.294;2022-12-10T00:23:49;99266.88;;;4.01;74.99
63439;BME280;49567;48.958;8.294;2022-12-10T00:26:17;99267.09;;;4.00;75.23
63439;BME280;49567;48.958;8.294;2022-12-10T00:28:44;99263.13;;;4.02;75.38
63439;BME280;49567;48.958;8.294;2022-12-10T00:31:15;99263.72;;;4.04;75.21
63439;BME280;49567;48.958;8.294;2022-12-10T00:33:41;99262.66;;;4.05;75.04
63439;BME280;49567;48.958;8.294;2022-12-10T00:36:19;99257.31;;;4.05;75.01
63439;BME280;49567;48.958;8.294;2022-12-10T00:38:46;99261.88;;;4.05;75.08
63439;BME280;49567;48.958;8.294;2022-12-10T00:41:13;99257.56;;;4.04;75.28
63439;BME280;49567;48.958;8.294;2022-12-10T00:43:39;99262.09;;;4.03;75.16
63439;BME280;49567;48.958;8.294;2022-12-10T00:46:04;99257.41;;;3.99;75.14
63439;BME280;49567;48.958;8.294;2022-12-10T00:48:30;99263.38;;;4.01;75.19
63439;BME280;49567;48.958;8.294;2022-12-10T00:50:58;99266.63;;;4.03;75.25
63439;BME280;49567;48.958;8.294;2022-12-10T00:53:24;99254.28;;;4.02;75.29
63439;BME280;49567;48.958;8.294;2022-12-10T00:55:50;99264.19;;;4.01;75.20
63439;BME280;49567;48.958;8.294;2022-12-10T00:58:15;99258.22;;;3.99;75.09
63439;BME280;49567;48.958;8.294;2022-12-10T01:00:40;99259.06;;;4.00;74.93
63439;BME280;49567;48.958;8.294;2022-12-10T01:03:06;99266.53;;;3.98;74.92
63439;BME280;49567;48.958;8.294;2022-12-10T01:05:31;99270.72;;;3.94;75.07
63439;BME280;49567;48.958;8.294;2022-12-10T01:07:56;99272.34;;;3.95;75.07
63439;BME280;49567;48.958;8.294;2022-12-10T01:10:22;99280.38;;;3.95;75.12
63439;BME280;49567;48.958;8.294;2022-12-10T01:12:47;99285.16;;;3.93;74.92
63439;BME280;49567;48.958;8.294;2022-12-10T01:15:12;99282.00;;;3.96;75.20
63439;BME280;49567;48.958;8.294;2022-12-10T01:17:38;99287.38;;;3.96;75.03
63439;BME280;49567;48.958;8.294;2022-12-10T01:20:03;99290.03;;;3.96;74.98
63439;BME280;49567;48.958;8.294;2022-12-10T01:22:28;99292.25;;;3.99;75.17
63439;BME280;49567;48.958;8.294;2022-12-10T01:24:54;99293.53;;;3.96;75.06
63439;BME280;49567;48.958;8.294;2022-12-10T01:27:23;99298.31;;;3.94;75.11
63439;BME280;49567;48.958;8.294;2022-12-10T01:29:48;99301.84;;;3.95;74.66
63439;BME280;49567;48.958;8.294;2022-12-10T01:32:13;99297.25;;;3.95;75.08
63439;BME280;49567;48.958;8.294;2022-12-10T01:34:38;99301.38;;;3.98;74.79
63439;BME280;49567;48.958;8.294;2022-12-10T01:37:04;99304.41;;;4.01;74.88
63439;BME280;49567;48.958;8.294;2022-12-10T01:39:29;99297.16;;;4.02;75.00
63439;BME280;49567;48.958;8.294;2022-12-10T01:41:57;99302.41;;;3.97;74.94
63439;BME280;49567;48.958;8.294;2022-12-10T01:46:51;99293.31;;;3.98;74.88
63439;BME280;49567;48.958;8.294;2022-12-10T01:49:19;99297.41;;;4.00;75.04
63439;BME280;49567;48.958;8.294;2022-12-10T01:51:46;99297.97;;;4.02;74.88
63439;BME280;49567;48.958;8.294;2022-12-10T01:54:17;99306.84;;;4.03;74.71
63439;BME280;49567;48.958;8.294;2022-12-10T01:56:45;99303.34;;;4.02;74.63
63439;BME280;49567;48.958;8.294;2022-12-10T01:59:12;99304.16;;;4.03;75.14
63439;BME280;49567;48.958;8.294;2022-12-10T02:01:46;99306.03;;;4.02;74.87
63439;BME280;49567;48.958;8.294;2022-12-10T02:04:39;99303.34;;;4.02;74.74
63439;BME280;49567;48.958;8.294;2022-12-10T02:13:01;99305.09;;;3.97;75.20
63439;BME280;49567;48.958;8.294;2022-12-10T02:15:35;99298.91;;;3.96;74.65
63439;BME280;49567;48.958;8.294;2022-12-10T02:18:15;99298.09;;;3.96;75.17
63439;BME280;49567;48.958;8.294;2022-12-10T02:20:56;99295.66;;;3.94;74.94
63439;BME280;49567;48.958;8.294;2022-12-10T02:23:28;99296.69;;;3.93;75.03
63439;BME280;49567;48.958;8.294;2022-12-10T02:26:04;99298.78;;;3.91;74.65
63439;BME280;49567;48.958;8.294;2022-12-10T02:31:03;99294.25;;;3.92;74.84
63439;BME280;49567;48.958;8.294;2022-12-10T02:33:30;99291.31;;;3.93;75.03
63439;BME280;49567;48.958;8.294;2022-12-10T02:35:57;99284.56;;;3.91;74.80
63439;BME280;49567;48.958;8.294;2022-12-10T02:38:27;99282.09;;;3.89;74.77
63439;BME280;49567;48.958;8.294;2022-12-10T02:40:57;99283.75;;;3.90;74.67
63439;BME280;49567;48.958;8.294;2022-12-10T02:43:25;99286.66;;;3.89;74.84
63439;BME280;49567;48.958;8.294;2022-12-10T02:45:53;99286.44;;;3.90;74.90
63439;BME280;49567;48.958;8.294;2022-12-10T02:48:19;99279.22;;;3.91;74.77
63439;BME280;49567;48.958;8.294;2022-12-10T02:50:45;99281.28;;;3.89;74.83
63439;BME280;49567;48.958;8.294;2022-12-10T02:53:10;99283.19;;;3.88;74.95
63439;BME280;49567;48.958;8.294;2022-12-10T02:58:27;99284.44;;;3.86;74.96
63439;BME280;49567;48.958;8.294;2022-12-10T03:01:11;99289.56;;;3.87;75.16
63439;BME280;49567;48.958;8.294;2022-12-10T03:04:01;99286.53;;;3.84;75.09
63439;BME280;49567;48.958;8.294;2022-12-10T03:06:41;99295.84;;;3.81;75.14
63439;BME280;49567;48.958;8.294;2022-12-10T03:09:12;99292.34;;;3.81;74.85
63439;BME280;49567;48.958;8.294;2022-12-10T03:11:41;99299.44;;;3.75;74.96
63439;BME280;49567;48.958;8.294;2022-12-10T03:16:39;99305.19;;;3.79;75.15
63439;BME280;49567;48.958;8.294;2022-12-10T03:19:10;99305.50;;;3.82;74.94
63439;BME280;49567;48.958;8.294;2022-12-10T03:21:37;99298.16;;;3.78;74.97
63439;BME280;49567;48.958;8.294;2022-12-10T03:24:05;99299.22;;;3.77;75.23
63439;BME280;49567;48.958;8.294;2022-12-10T03:26:31;99293.63;;;3.78;75.13
63439;BME280;49567;48.958;8.294;2022-12-10T03:29:04;99299.22;;;3.77;75.46
63439;BME280;49567;48.958;8.294;2022-12-10T03:31:32;99300.59;;;3.79;75.52
63439;BME280;49567;48.958;8.294;2022-12-10T03:33:59;99302.25;;;3.80;75.31
63439;BME280;49567;48.958;8.294;2022-12-10T03:36:26;99301.69;;;3.78;75.23
63439;BME280;49567;48.958;8.294;2022-12-10T03:38:52;99312.59;;;3.77;75.42
63439;BME280;49567;48.958;8.294;2022-12-10T03:41:18;99318.78;;;3.77;75.60
63439;BME280;49567;48.958;8.294;2022-12-10T03:43:54;99317.75;;;3.78;75.57
63439;BME280;49567;48.958;8.294;2022-12-10T03:46:21;99315.28;;;3.77;75.83
63439;BME280;49567;48.958;8.294;2022-12-10T03:48:47;99313.63;;;3.76;76.01
63439;BME280;49567;48.958;8.294;2022-12-10T03:51:12;99312.59;;;3.77;75.94
63439;BME280;49567;48.958;8.294;2022-12-10T03:53:37;99312.84;;;3.75;75.74
63439;BME280;49567;48.958;8.294;2022-12-10T03:56:03;99313.88;;;3.74;75.67
63439;BME280;49567;48.958;8.294;2022-12-10T03:58:28;99318.06;;;3.70;75.85
63439;BME280;49567;48.958;8.294;2022-12-10T04:00:54;99321.19;;;3.67;75.83
63439;BME280;49567;48.958;8.294;2022-12-10T04:03:19;99322.59;;;3.70;75.85
63439;BME280;49567;48.958;8.294;2022-12-10T04:05:44;99326.34;;;3.69;75.96
63439;BME280;49567;48.958;8.294;2022-12-10T04:08:09;99328.41;;;3.66;76.12
63439;BME280;49567;48.958;8.294;2022-12-10T04:10:36;99329.22;;;3.67;76.07
63439;BME280;49567;48.958;8.294;2022-12-10T04:13:02;99331.34;;;3.65;76.17
63439;BME280;49567;48.958;8.294;2022-12-10T04:15:46;99325.75;;;3.66;76.23
63439;BME280;49567;48.958;8.294;2022-12-10T04:18:30;99328.88;;;3.63;76.14
63439;BME280;49567;48.958;8.294;2022-12-10T04:20:56;99321.09;;;3.62;76.09
63439;BME280;49567;48.958;8.294;2022-12-10T04:23:39;99322.94;;;3.61;76.32
63439;BME280;49567;48.958;8.294;2022-12-10T04:26:23;99328.88;;;3.63;75.94
63439;BME280;49567;48.958;8.294;2022-12-10T04:29:09;99329.91;;;3.62;76.38
63439;BME280;49567;48.958;8.294;2022-12-10T04:31:34;99328.50;;;3.60;75.87
63439;BME280;49567;48.958;8.294;2022-12-10T04:34:00;99322.56;;;3.58;75.94
63439;BME280;49567;48.958;8.294;2022-12-10T04:36:25;99324.53;;;3.62;75.92
63439;BME280;49567;48.958;8.294;2022-12-10T04:38:50;99327.47;;;3.61;76.20
63439;BME280;49567;48.958;8.294;2022-12-10T04:41:15;99326.88;;;3.59;76.16
63439;BME280;49567;48.958;8.294;2022-12-10T04:43:43;99323.59;;;3.57;76.17
63439;BME280;49567;48.958;8.294;2022-12-10T04:46:09;99323.69;;;3.50;76.50
63439;BME280;49567;48.958;8.294;2022-12-10T04:48:35;99323.31;;;3.47;76.23
63439;BME280;49567;48.958;8.294;2022-12-10T04:51:00;99321.03;;;3.50;76.23
63439;BME280;49567;48.958;8.294;2022-12-10T04:53:25;99317.31;;;3.51;76.21
63439;BME280;49567;48.958;8.294;2022-12-10T04:55:51;99313.44;;;3.47;76.23
63439;BME280;49567;48.958;8.294;2022-12-10T04:58:16;99309.72;;;3.48;76.05
63439;BME280;49567;48.958;8.294;2022-12-10T05:00:42;99319.16;;;3.51;76.24
63439;BME280;49567;48.958;8.294;2022-12-10T05:03:07;99326.63;;;3.49;75.97
63439;BME280;49567;48.958;8.294;2022-12-10T05:05:34;99322.50;;;3.46;76.08
63439;BME280;49567;48.958;8.294;2022-12-10T05:07:59;99326.47;;;3.44;76.05
63439;BME280;49567;48.958;8.294;2022-12-10T05:10:24;99327.50;;;3.43;76.13
63439;BME280;49567;48.958;8.294;2022-12-10T05:12:50;99333.69;;;3.43;76.35
63439;BME280;49567;48.958;8.294;2022-12-10T05:15:15;99338.22;;;3.43;76.26
63439;BME280;49567;48.958;8.294;2022-12-10T05:17:40;99339.75;;;3.50;76.08
63439;BME280;49567;48.958;8.294;2022-12-10T05:20:06;99351.44;;;3.56;76.05
63439;BME280;49567;48.958;8.294;2022-12-10T05:22:32;99346.69;;;3.58;76.10
63439;BME280;49567;48.958;8.294;2022-12-10T05:25:15;99351.22;;;3.57;75.98
63439;BME280;49567;48.958;8.294;2022-12-10T05:27:41;99342.81;;;3.54;75.78
63439;BME280;49567;48.958;8.294;2022-12-10T05:30:07;99346.53;;;3.53;76.02
63439;BME280;49567;48.958;8.294;2022-12-10T05:32:33;99347.81;;;3.50;76.20
63439;BME280;49567;48.958;8.294;2022-12-10T05:34:58;99346.53;;;3.53;75.93
63439;BME280;49567;48.958;8.294;2022-12-10T05:37:23;99351.88;;;3.53;75.81
63439;BME280;49567;48.958;8.294;2022-12-10T05:39:49;99357.13;;;3.48;75.75
63439;BME280;49567;48.958;8.294;2022-12-10T05:42:14;99356.50;;;3.46;76.00
63439;BME280;49567;48.958;8.294;2022-12-10T05:44:39;99369.47;;;3.49;75.96
63439;BME280;49567;48.958;8.294;2022-12-10T05:47:04;99364.13;;;3.49;75.74
63439;BME280;49567;48.958;8.294;2022-12-10T05:49:30;99362.91;;;3.45;75.77
63439;BME280;49567;48.958;8.294;2022-12-10T05:51:55;99369.75;;;3.41;75.80
63439;BME280;49567;48.958;8.294;2022-12-10T05:54:21;99356.38;;;3.41;75.68
63439;BME280;49567;48.958;8.294;2022-12-10T05:56:46;99357.78;;;3.43;75.43
63439;BME280;49567;48.958;8.294;2022-12-10T05:59:12;99361.53;;;3.42;75.39
63439;BME280;49567;48.958;8.294;2022-12-10T06:01:37;99350.91;;;3.36;75.68
63439;BME280;49567;48.958;8.294;2022-12-10T06:04:04;99362.41;;;3.36;75.23
63439;BME280;49567;48.958;8.294;2022-12-10T06:06:33;99364.88;;;3.38;75.54
63439;BME280;49567;48.958;8.294;2022-12-10T06:08:58;99371.63;;;3.40;75.55
63439;BME280;49567;48.958;8.294;2022-12-10T06:11:25;99374.31;;;3.40;75.51
63439;BME280;49567;48.958;8.294;2022-12-10T06:13:51;99375.34;;;3.39;75.42
63439;BME280;49567;48.958;8.294;2022-12-10T06:16:16;99379.91;;;3.39;75.53
63439;BME280;49567;48.958;8.294;2022-12-10T06:18:42;99384.44;;;3.38;75.30
63439;BME280;49567;48.958;8.294;2022-12-10T06:21:10;99382.78;;;3.37;75.38
63439;BME280;49567;48.958;8.294;2022-12-10T06:23:37;99388.38;;;3.36;75.59
63439;BME280;49567;48.958;8.294;2022-12-10T06:26:11;99380.94;;;3.38;75.53
63439;BME280;49567;48.958;8.294;2022-12-10T06:28:37;99394.91;;;3.40;75.38
63439;BME280;49567;48.958;8.294;2022-12-10T06:31:03;99400.88;;;3.42;75.61
63439;BME280;49567;48.958;8.294;2022-12-10T06:33:28;99405.97;;;3.43;75.30
63439;BME280;49567;48.958;8.294;2022-12-10T06:35:54;99417.53;;;3.44;75.54
63439;BME280;49567;48.958;8.294;2022-12-10T06:38:19;99421.03;;;3.44;75.52
63439;BME280;49567;48.958;8.294;2022-12-10T06:40:45;99426.13;;;3.46;75.27
63439;BME280;49567;48.958;8.294;2022-12-10T06:43:10;99416.50;;;3.45;75.13
63439;BME280;49567;48.958;8.294;2022-12-10T06:45:42;99428.69;;;3.41;75.29
63439;BME280;49567;48.958;8.294;2022-12-10T06:48:08;99433.84;;;3.42;75.29
63439;BME280;49567;48.958;8.294;2022-12-10T06:50:34;99439.19;;;3.42;75.37
63439;BME280;49567;48.958;8.294;2022-12-10T06:53:01;99436.28;;;3.44;75.06
63439;BME280;49567;48.958;8.294;2022-12-10T06:55:27;99438.38;;;3.42;74.91
63439;BME280;49567;48.958;8.294;2022-12-10T06:57:53;99442.28;;;3.39;75.03
63439;BME280;49567;48.958;8.294;2022-12-10T07:00:19;99434.50;;;3.38;75.32
63439;BME280;49567;48.958;8.294;2022-12-10T07:02:45;99436.13;;;3.39;74.98
63439;BME280;49567;48.958;8.294;2022-12-10T07:05:10;99444.75;;;3.41;75.05
63439;BME280;49567;48.958;8.294;2022-12-10T07:07:36;99445.13;;;3.44;74.87
63439;BME280;49567;48.958;8.294;2022-12-10T07:10:01;99439.78;;;3.44;75.05
63439;BME280;49567;48.958;8.294;2022-12-10T07:12:27;99439.97;;;3.43;75.42
63439;BME280;49567;48.958;8.294;2022-12-10T07:14:52;99438.56;;;3.40;75.23
63439;BME280;49567;48.958;8.294;2022-12-10T07:17:17;99442.91;;;3.41;75.33
63439;BME280;49567;48.958;8.294;2022-12-10T07:19:43;99440.22;;;3.41;75.03
63439;BME280;49567;48.958;8.294;2022-12-10T07:22:09;99445.78;;;3.40;74.78
63439;BME280;49567;48.958;8.294;2022-12-10T07:24:34;99454.06;;;3.38;75.11
63439;BME280;49567;48.958;8.294;2022-12-10T07:27:00;99453.44;;;3.36;75.21
63439;BME280;49567;48.958;8.294;2022-12-10T07:29:25;99461.03;;;3.39;75.21
63439;BME280;49567;48.958;8.294;2022-12-10T07:31:51;99471.09;;;3.44;75.17
63439;BME280;49567;48.958;8.294;2022-12-10T07:34:17;99466.56;;;3.44;75.03
63439;BME280;49567;48.958;8.294;2022-12-10T07:36:43;99482.63;;;3.44;74.60
63439;BME280;49567;48.958;8.294;2022-12-10T07:39:09;99464.69;;;3.45;74.97
63439;BME280;49567;48.958;8.294;2022-12-10T07:41:35;99483.59;;;3.50;75.06
63439;BME280;49567;48.958;8.294;2022-12-10T07:44:01;99490.34;;;3.52;74.84
63439;BME280;49567;48.958;8.294;2022-12-10T07:46:29;99488.88;;;3.56;74.69
63439;BME280;49567;48.958;8.294;2022-12-10T07:48:55;99487.38;;;3.60;74.56
63439;BME280;49567;48.958;8.294;2022-12-10T07:51:21;99481.81;;;3.62;74.64
63439;BME280;49567;48.958;8.294;2022-12-10T07:53:50;99488.03;;;3.56;74.46
63439;BME280;49567;48.958;8.294;2022-12-10T07:56:15;99478.38;;;3.55;74.46
63439;BME280;49567;48.958;8.294;2022-12-10T07:58:43;99489.69;;;3.57;74.84
63439;BME280;49567;48.958;8.294;2022-12-10T08:01:13;99486.19;;;3.56;74.75
63439;BME280;49567;48.958;8.294;2022-12-10T08:03:39;99480.84;;;3.56;74.69
63439;BME280;49567;48.958;8.294;2022-12-10T08:06:12;99485.53;;;3.61;74.54
63439;BME280;49567;48.958;8.294;2022-12-10T08:08:38;99491.91;;;3.60;74.68
63439;BME280;49567;48.958;8.294;2022-12-10T08:11:05;99491.34;;;3.58;74.73
63439;BME280;49567;48.958;8.294;2022-12-10T08:13:32;99496.47;;;3.59;74.71
63439;BME280;49567;48.958;8.294;2022-12-10T08:16:06;99492.94;;;3.59;74.54
63439;BME280;49567;48.958;8.294;2022-12-10T08:18:32;99494.41;;;3.61;74.62
63439;BME280;49567;48.958;8.294;2022-12-10T08:20:58;99491.25;;;3.64;74.53
63439;BME280;49567;48.958;8.294;2022-12-10T08:23:25;99492.66;;;3.67;74.46
63439;BME280;49567;48.958;8.294;2022-12-10T08:25:50;99496.16;;;3.67;74.40
63439;BME280;49567;48.958;8.294;2022-12-10T08:28:15;99507.34;;;3.64;74.35
63439;BME280;49567;48.958;8.294;2022-12-10T08:30:46;99508.97;;;3.65;74.32
63439;BME280;49567;48.958;8.294;2022-12-10T08:33:11;99513.91;;;3.69;74.42
63439;BME280;49567;48.958;8.294;2022-12-10T08:35:37;99519.47;;;3.67;74.22
63439;BME280;49567;48.958;8.294;2022-12-10T08:38:02;99516.66;;;3.62;73.97
63439;BME280;49567;48.958;8.294;2022-12-10T08:40:27;99519.53;;;3.60;73.91
63439;BME280;49567;48.958;8.294;2022-12-10T08:42:52;99521.38;;;3.60;73.97
63439;BME280;49567;48.958;8.294;2022-12-10T08:45:18;99525.47;;;3.62;73.83
63439;BME280;49567;48.958;8.294;2022-12-10T08:47:43;99522.59;;;3.64;73.69
63439;BME280;49567;48.958;8.294;2022-12-10T08:50:08;99526.47;;;3.68;73.54
63439;BME280;49567;48.958;8.294;2022-12-10T08:52:34;99529.53;;;3.72;73.34
63439;BME280;49567;48.958;8.294;2022-12-10T08:54:59;99536.28;;;3.74;73.09
63439;BME280;49567;48.958;8.294;2022-12-10T08:57:24;99526.41;;;3.75;72.98
63439;BME280;49567;48.958;8.294;2022-12-10T08:59:50;99532.59;;;3.75;73.14
63439;BME280;49567;48.958;8.294;2022-12-10T09:02:15;99536.88;;;3.76;72.93
63439;BME280;49567;48.958;8.294;2022-12-10T09:04:40;99538.31;;;3.79;72.78
63439;BME280;49567;48.958;8.294;2022-12-10T09:07:07;99530.47;;;3.77;73.14
63439;BME280;49567;48.958;8.294;2022-12-10T09:09:32;99541.41;;;3.76;73.00
63439;BME280;49567;48.958;8.294;2022-12-10T09:11:58;99527.59;;;3.79;72.78
63439;BME280;49567;48.958;8.294;2022-12-10T09:14:23;99547.53;;;3.83;72.85
63439;BME280;49567;48.958;8.294;2022-12-10T09:16:49;99545.22;;;3.86;72.70
63439;BME280;49567;48.958;8.294;2022-12-10T09:19:14;99549.09;;;3.90;72.79
63439;BME280;49567;48.958;8.294;2022-12-10T09:21:39;99548.88;;;3.92;72.43
63439;BME280;49567;48.958;8.294;2022-12-10T09:24:05;99565.75;;;3.92;72.41
63439;BME280;49567;48.958;8.294;2022-12-10T09:26:31;99560.63;;;3.91;71.96
63439;BME280;49567;48.958;8.294;2022-12-10T09:28:56;99565.75;;;3.92;72.01
63439;BME280;49567;48.958;8.294;2022-12-10T09:31:23;99564.53;;;3.95;71.52
63439;BME280;49567;48.958;8.294;2022-12-10T09:33:50;99566.59;;;3.93;71.39
63439;BME280;49567;48.958;8.294;2022-12-10T09:36:16;99578.13;;;3.93;71.30
63439;BME280;49567;48.958;8.294;2022-12-10T09:38:43;99576.47;;;3.92;71.07
63439;BME280;49567;48.958;8.294;2022-12-10T09:44:05;99571.50;;;3.96;71.21
63439;BME280;49567;48.958;8.294;2022-12-10T09:46:55;99572.94;;;3.98;71.11
63439;BME280;49567;48.958;8.294;2022-12-10T09:49:48;99571.13;;;3.92;71.22
63439;BME280;49567;48.958;8.294;2022-12-10T09:52:19;99571.13;;;3.92;71.01
63439;BME280;49567;48.958;8.294;2022-12-10T09:54:50;99559.16;;;3.95;70.78
63439;BME280;49567;48.958;8.294;2022-12-10T09:57:25;99565.47;;;4.00;71.12
63439;BME280;49567;48.958;8.294;2022-12-10T09:59:52;99569.94;;;4.06;70.82
63439;BME280;49567;48.958;8.294;2022-12-10T10:02:22;99569.41;;;4.16;70.37
63439;BME280;49567;48.958;8.294;2022-12-10T10:04:49;99571.19;;;4.22;70.15
63439;BME280;49567;48.958;8.294;2022-12-10T10:07:26;99566.19;;;4.26;70.14
63439;BME280;49567;48.958;8.294;2022-12-10T10:09:58;99573.28;;;4.20;69.94
63439;BME280;49567;48.958;8.294;2022-12-10T10:12:27;99578.13;;;4.11;69.81
63439;BME280;49567;48.958;8.294;2022-12-10T10:14:53;99577.78;;;4.08;69.94
63439;BME280;49567;48.958;8.294;2022-12-10T10:17:33;99583.13;;;4.08;70.15
63439;BME280;49567;48.958;8.294;2022-12-10T10:20:00;99576.41;;;3.99;69.85
63439;BME280;49567;48.958;8.294;2022-12-10T10:22:25;99573.72;;;3.99;70.13
63439;BME280;49567;48.958;8.294;2022-12-10T10:24:51;99575.44;;;3.93;70.24
63439;BME280;49567;48.958;8.294;2022-12-10T10:27:21;99582.00;;;3.97;69.91
63439;BME280;49567;48.958;8.294;2022-12-10T10:29:55;99572.63;;;4.06;69.69
63439;BME280;49567;48.958;8.294;2022-12-10T10:32:26;99577.78;;;4.08;69.70
63439;BME280;49567;48.958;8.294;2022-12-10T10:34:55;99583.50;;;4.11;69.69
63439;BME280;49567;48.958;8.294;2022-12-10T10:39:49;99573.66;;;4.05;69.58
63439;BME280;49567;48.958;8.294;2022-12-10T10:42:33;99582.59;;;3.99;69.73
63439;BME280;49567;48.958;8.294;2022-12-10T10:45:02;99584.81;;;4.02;69.85
63439;BME280;49567;48.958;8.294;2022-12-10T10:47:34;99589.97;;;4.04;69.81
63439;BME280;49567;48.958;8.294;2022-12-10T10:50:04;99587.66;;;4.07;69.56
63439;BME280;49567;48.958;8.294;2022-12-10T10:52:36;99589.28;;;4.08;69.71
63439;BME280;49567;48.958;8.294;2022-12-10T10:55:02;99584.47;;;4.17;69.54
63439;BME280;49567;48.958;8.294;2022-12-10T10:57:32;99585.41;;;4.23;69.56
63439;BME280;49567;48.958;8.294;2022-12-10T11:00:20;99583.94;;;4.27;69.39
63439;BME280;49567;48.958;8.294;2022-12-10T11:02:48;99591.38;;;4.25;69.09
63439;BME280;49567;48.958;8.294;2022-12-10T11:07:58;99595.03;;;4.30;69.23
63439;BME280;49567;48.958;8.294;2022-12-10T11:10:25;99592.56;;;4.29;69.15
63439;BME280;49567;48.958;8.294;2022-12-10T11:17:58;99588.38;;;4.33;68.97
63439;BME280;49567;48.958;8.294;2022-12-10T11:20:27;99585.31;;;4.47;68.29
63439;BME280;49567;48.958;8.294;2022-12-10T11:22:56;99580.53;;;4.49;68.24
63439;BME280;49567;48.958;8.294;2022-12-10T11:31:23;99585.34;;;4.59;67.60
63439;BME280;49567;48.958;8.294;2022-12-10T11:33:59;99584.34;;;4.71;67.54
63439;BME280;49567;48.958;8.294;2022-12-10T11:36:53;99582.53;;;4.84;67.23
63439;BME280;49567;48.958;8.294;2022-12-10T11:43:03;99585.69;;;4.81;67.00
63439;BME280;49567;48.958;8.294;2022-12-10T11:51:51;99581.94;;;4.82;67.33
63439;BME280;49567;48.958;8.294;2022-12-10T11:54:38;99584.63;;;4.82;67.01
63439;BME280;49567;48.958;8.294;2022-12-10T11:57:15;99585.50;;;4.94;67.05
63439;BME280;49567;48.958;8.294;2022-12-10T12:13:08;99591.38;;;4.72;67.39
63439;BME280;49567;48.958;8.294;2022-12-10T12:15:50;99599.06;;;4.69;67.03
63439;BME280;49567;48.958;8.294;2022-12-10T12:18:23;99610.25;;;4.66;67.30
63439;BME280;49567;48.958;8.294;2022-12-10T12:20:55;99616.06;;;4.63;67.40
63439;BME280;49567;48.958;8.294;2022-12-10T12:23:27;99610.81;;;4.68;67.27
63439;BME280;49567;48.958;8.294;2022-12-10T12:25:58;99608.97;;;4.68;67.14
63439;BME280;49567;48.958;8.294;2022-12-10T12:28:33;99607.94;;;4.69;67.36
63439;BME280;49567;48.958;8.294;2022-12-10T12:31:15;99609.13;;;4.74;67.37
63439;BME280;49567;48.958;8.294;2022-12-10T12:33:53;99611.34;;;4.77;66.85
63439;BME280;49567;48.958;8.294;2022-12-10T12:36:31;99616.63;;;4.83;66.64
63439;BME280;49567;48.958;8.294;2022-12-10T12:39:06;99614.88;;;4.89;66.17
63439;BME280;49567;48.958;8.294;2022-12-10T12:44:12;99619.69;;;4.98;65.94
63439;BME280;49567;48.958;8.294;2022-12-10T12:46:43;99622.53;;;5.03;65.97
63439;BME280;49567;48.958;8.294;2022-12-10T12:49:26;99632.44;;;5.03;66.15
63439;BME280;49567;48.958;8.294;2022-12-10T12:52:00;99624.94;;;4.93;65.91
63439;BME280;49567;48.958;8.294;2022-12-10T12:54:28;99622.34;;;4.87;66.45
63439;BME280;49567;48.958;8.294;2022-12-10T13:00:09;99628.84;;;4.79;66.53
63439;BME280;49567;48.958;8.294;2022-12-10T13:03:32;99638.19;;;4.77;66.38
63439;BME280;49567;48.958;8.294;2022-12-10T13:08:47;99644.09;;;4.67;66.65
63439;BME280;49567;48.958;8.294;2022-12-10T13:11:30;99643.28;;;4.66;66.62
63439;BME280;49567;48.958;8.294;2022-12-10T13:16:48;99644.56;;;4.64;66.81
63439;BME280;49567;48.958;8.294;2022-12-10T13:32:20;99665.94;;;4.52;67.27
63439;BME280;49567;48.958;8.294;2022-12-10T13:34:46;99664.91;;;4.53;66.77
63439;BME280;49567;48.958;8.294;2022-12-10T13:37:27;99667.34;;;4.55;66.79
63439;BME280;49567;48.958;8.294;2022-12-10T13:40:14;99674.34;;;4.56;66.53
63439;BME280;49567;48.958;8.294;2022-12-10T13:42:43;99677.03;;;4.56;66.24
63439;BME280;49567;48.958;8.294;2022-12-10T13:45:31;99679.72;;;4.56;65.89
63439;BME280;49567;48.958;8.294;2022-12-10T13:50:54;99689.06;;;4.53;66.06
63439;BME280;49567;48.958;8.294;2022-12-10T13:53:46;99695.25;;;4.54;65.93
63439;BME280;49567;48.958;8.294;2022-12-10T13:56:28;99702.69;;;4.52;65.74
63439;BME280;49567;48.958;8.294;2022-12-10T14:01:51;99713.03;;;4.48;65.86
63439;BME280;49567;48.958;8.294;2022-12-10T14:06:48;99706.91;;;4.41;65.96
63439;BME280;49567;48.958;8.294;2022-12-10T14:09:21;99709.59;;;4.41;65.98
63439;BME280;49567;48.958;8.294;2022-12-10T14:11:57;99713.56;;;4.39;65.95
63439;BME280;49567;48.958;8.294;2022-12-10T14:14:30;99719.59;;;4.34;66.08
63439;BME280;49567;48.958;8.294;2022-12-10T14:17:00;99724.28;;;4.39;65.97
63439;BME280;49567;48.958;8.294;2022-12-10T14:19:27;99716.63;;;4.42;65.97
63439;BME280;49567;48.958;8.294;2022-12-10T14:21:54;99720.72;;;4.45;65.56
63439;BME280;49567;48.958;8.294;2022-12-10T14:24:37;99719.66;;;4.46;65.16
63439;BME280;49567;48.958;8.294;2022-12-10T14:27:13;99721.78;;;4.44;65.39
63439;BME280;49567;48.958;8.294;2022-12-10T14:29:51;99723.84;;;4.42;65.39
63439;BME280;49567;48.958;8.294;2022-12-10T14:32:24;99731.88;;;4.42;65.53
63439;BME280;49567;48.958;8.294;2022-12-10T14:34:53;99723.84;;;4.42;65.80
63439;BME280;49567;48.958;8.294;2022-12-10T14:37:23;99733.75;;;4.41;65.52
63439;BME280;49567;48.958;8.294;2022-12-10T14:39:49;99735.63;;;4.41;65.78
63439;BME280;49567;48.958;8.294;2022-12-10T14:42:16;99735.00;;;4.39;65.81
63439;BME280;49567;48.958;8.294;2022-12-10T14:44:42;99736.06;;;4.38;65.99
63439;BME280;49567;48.958;8.294;2022-12-10T14:47:15;99731.94;;;4.35;66.00
63439;BME280;49567;48.958;8.294;2022-12-10T14:49:44;99740.81;;;4.36;66.35
63439;BME280;49567;48.958;8.294;2022-12-10T14:52:19;99740.63;;;4.37;66.25